Arenas Valley, New Mexico
Current Conditions -  °F | °C
As of 11:15 AM on Friday 24 Oct 2014 (Local Time) from KSVC Reporting Station
Clear Clear  
Wind Chill: 70°   Ceiling: Unl
Heat Index: 70°   Visibility: 10mi
Dew Point: 45°   Wind: 3mph
Humidity: 40%   Direction: 120°ESE
Pressure: 30.36"   Gusts: NA
Location:  32.79°N, 108.18°W
Report Text: KSVC 241715Z AUTO 12003KT 10SM CLR 21/07 A3036 RMK AO2
Loading
Personal Weather Stations






























Interactive Weather Map
Tropical Storm Tracking
New forecast layout! Learn more

10-Day Weather Forecast

Advertisements
Track Severe Weather on mobile